Airport View

Enter AWOS ICAO identifier for current METAR.

KFNL for example

K42J 221140Z AUTO 36004KT 2 1/2SM CLR 20/20 A2999 RMK AO1 TSNO

22 Sep 2017 11:43

Frequency: 124.275

Phone: 352-473-8273

Other Area AWOS: KGNV - K28J - KVQQ - KNIP

TAF KGNV 220520Z 2206/2306 06003KT P6SM FEW060 SCT150 BKN250 FM221300 05005KT P6SM SCT025 BKN200 FM221600 06008KT P6SM VCSH BKN030 BKN070 FM222000 06010KT P6SM VCSH BKN045